sensor_id;sensor_type;location;lat;lon;timestamp;temperature;humidity
29237;DHT22;16266;50.866;4.398;2024-02-21T00:01:38;9.80;99.90
29237;DHT22;16266;50.866;4.398;2024-02-21T00:04:04;9.80;99.90
29237;DHT22;16266;50.866;4.398;2024-02-21T00:06:29;9.90;99.90
29237;DHT22;16266;50.866;4.398;2024-02-21T00:08:55;9.90;99.90
29237;DHT22;16266;50.866;4.398;2024-02-21T00:11:21;10.00;99.90
29237;DHT22;16266;50.866;4.398;2024-02-21T00:13:46;10.00;99.90
29237;DHT22;16266;50.866;4.398;2024-02-21T00:16:12;10.00;99.90
29237;DHT22;16266;50.866;4.398;2024-02-21T00:18:38;10.10;99.90
29237;DHT22;16266;50.866;4.398;2024-02-21T00:21:04;10.10;99.90
29237;DHT22;16266;50.866;4.398;2024-02-21T00:23:29;10.20;99.90
29237;DHT22;16266;50.866;4.398;2024-02-21T00:25:55;10.20;99.90
29237;DHT22;16266;50.866;4.398;2024-02-21T00:28:21;10.20;99.90
29237;DHT22;16266;50.866;4.398;2024-02-21T00:30:46;10.20;99.90
29237;DHT22;16266;50.866;4.398;2024-02-21T00:33:13;10.20;99.90
29237;DHT22;16266;50.866;4.398;2024-02-21T00:35:39;10.20;99.90
29237;DHT22;16266;50.866;4.398;2024-02-21T00:38:04;10.20;99.90
29237;DHT22;16266;50.866;4.398;2024-02-21T00:40:30;10.20;99.90
29237;DHT22;16266;50.866;4.398;2024-02-21T00:42:56;10.20;99.90
29237;DHT22;16266;50.866;4.398;2024-02-21T00:45:21;10.30;99.90
29237;DHT22;16266;50.866;4.398;2024-02-21T00:47:47;10.20;99.90
29237;DHT22;16266;50.866;4.398;2024-02-21T00:50:13;10.20;99.90
29237;DHT22;16266;50.866;4.398;2024-02-21T00:52:38;10.10;99.90
29237;DHT22;16266;50.866;4.398;2024-02-21T00:55:04;10.10;99.90
29237;DHT22;16266;50.866;4.398;2024-02-21T00:57:30;10.10;99.90
29237;DHT22;16266;50.866;4.398;2024-02-21T00:59:55;10.00;99.90
29237;DHT22;16266;50.866;4.398;2024-02-21T01:02:21;9.90;99.90
29237;DHT22;16266;50.866;4.398;2024-02-21T01:04:46;9.90;99.90
29237;DHT22;16266;50.866;4.398;2024-02-21T01:07:12;9.80;99.90
29237;DHT22;16266;50.866;4.398;2024-02-21T01:09:37;9.90;99.90
29237;DHT22;16266;50.866;4.398;2024-02-21T01:12:03;10.00;99.90
29237;DHT22;16266;50.866;4.398;2024-02-21T01:14:28;9.90;99.90
29237;DHT22;16266;50.866;4.398;2024-02-21T01:16:54;10.00;99.90
29237;DHT22;16266;50.866;4.398;2024-02-21T01:19:20;10.00;99.90
29237;DHT22;16266;50.866;4.398;2024-02-21T01:21:45;10.00;99.90
29237;DHT22;16266;50.866;4.398;2024-02-21T01:24:11;9.80;99.90
29237;DHT22;16266;50.866;4.398;2024-02-21T01:26:36;9.90;99.90
29237;DHT22;16266;50.866;4.398;2024-02-21T01:29:02;9.80;99.90
29237;DHT22;16266;50.866;4.398;2024-02-21T01:31:28;9.70;99.90
29237;DHT22;16266;50.866;4.398;2024-02-21T01:33:56;9.60;99.90
29237;DHT22;16266;50.866;4.398;2024-02-21T01:36:21;9.40;99.90
29237;DHT22;16266;50.866;4.398;2024-02-21T01:38:47;9.30;99.90
29237;DHT22;16266;50.866;4.398;2024-02-21T01:41:12;9.10;99.90
29237;DHT22;16266;50.866;4.398;2024-02-21T01:43:39;9.00;99.90
29237;DHT22;16266;50.866;4.398;2024-02-21T01:46:05;9.10;99.90
29237;DHT22;16266;50.866;4.398;2024-02-21T01:48:30;9.20;99.90
29237;DHT22;16266;50.866;4.398;2024-02-21T01:50:56;9.30;99.90
29237;DHT22;16266;50.866;4.398;2024-02-21T01:53:27;9.30;99.90
29237;DHT22;16266;50.866;4.398;2024-02-21T01:55:53;9.30;99.90
29237;DHT22;16266;50.866;4.398;2024-02-21T01:58:18;9.20;99.90
29237;DHT22;16266;50.866;4.398;2024-02-21T02:00:45;9.20;99.90
29237;DHT22;16266;50.866;4.398;2024-02-21T02:03:12;9.30;99.90
29237;DHT22;16266;50.866;4.398;2024-02-21T02:05:44;9.30;99.90
29237;DHT22;16266;50.866;4.398;2024-02-21T02:08:12;9.30;99.90
29237;DHT22;16266;50.866;4.398;2024-02-21T02:10:38;9.40;99.90
29237;DHT22;16266;50.866;4.398;2024-02-21T02:13:04;9.50;99.90
29237;DHT22;16266;50.866;4.398;2024-02-21T02:15:43;9.60;99.90
29237;DHT22;16266;50.866;4.398;2024-02-21T02:18:10;9.60;99.90
29237;DHT22;16266;50.866;4.398;2024-02-21T02:20:36;9.70;99.90
29237;DHT22;16266;50.866;4.398;2024-02-21T02:23:12;9.60;99.90
29237;DHT22;16266;50.866;4.398;2024-02-21T02:25:39;9.70;99.90
29237;DHT22;16266;50.866;4.398;2024-02-21T02:28:05;9.70;99.90
29237;DHT22;16266;50.866;4.398;2024-02-21T02:30:37;9.80;99.90
29237;DHT22;16266;50.866;4.398;2024-02-21T02:33:03;9.90;99.90
29237;DHT22;16266;50.866;4.398;2024-02-21T02:35:29;9.80;99.90
29237;DHT22;16266;50.866;4.398;2024-02-21T02:37:54;9.90;99.90
29237;DHT22;16266;50.866;4.398;2024-02-21T02:40:20;9.80;99.90
29237;DHT22;16266;50.866;4.398;2024-02-21T02:42:45;9.90;99.90
29237;DHT22;16266;50.866;4.398;2024-02-21T02:45:12;9.90;99.90
29237;DHT22;16266;50.866;4.398;2024-02-21T02:47:39;9.90;99.90
29237;DHT22;16266;50.866;4.398;2024-02-21T02:50:05;9.90;99.90
29237;DHT22;16266;50.866;4.398;2024-02-21T02:52:31;9.90;99.90
29237;DHT22;16266;50.866;4.398;2024-02-21T02:54:57;9.90;99.90
29237;DHT22;16266;50.866;4.398;2024-02-21T02:57:22;10.00;99.90
29237;DHT22;16266;50.866;4.398;2024-02-21T02:59:48;9.90;99.90
29237;DHT22;16266;50.866;4.398;2024-02-21T03:02:13;10.00;99.90
29237;DHT22;16266;50.866;4.398;2024-02-21T03:04:39;9.90;99.90
29237;DHT22;16266;50.866;4.398;2024-02-21T03:07:05;9.90;99.90
29237;DHT22;16266;50.866;4.398;2024-02-21T03:09:30;9.80;99.90
29237;DHT22;16266;50.866;4.398;2024-02-21T03:11:56;9.80;99.90
29237;DHT22;16266;50.866;4.398;2024-02-21T03:14:30;9.80;99.90
29237;DHT22;16266;50.866;4.398;2024-02-21T03:16:57;9.80;99.90
29237;DHT22;16266;50.866;4.398;2024-02-21T03:19:24;9.80;99.90
29237;DHT22;16266;50.866;4.398;2024-02-21T03:21:49;9.90;99.90
29237;DHT22;16266;50.866;4.398;2024-02-21T03:24:16;9.80;99.90
29237;DHT22;16266;50.866;4.398;2024-02-21T03:26:41;9.90;99.90
29237;DHT22;16266;50.866;4.398;2024-02-21T03:29:07;9.90;99.90
29237;DHT22;16266;50.866;4.398;2024-02-21T03:31:33;9.90;99.90
29237;DHT22;16266;50.866;4.398;2024-02-21T03:33:58;9.80;99.90
29237;DHT22;16266;50.866;4.398;2024-02-21T03:36:24;9.80;99.90
29237;DHT22;16266;50.866;4.398;2024-02-21T03:38:49;9.80;99.90
29237;DHT22;16266;50.866;4.398;2024-02-21T03:41:15;9.70;99.90
29237;DHT22;16266;50.866;4.398;2024-02-21T03:43:40;9.70;99.90
29237;DHT22;16266;50.866;4.398;2024-02-21T03:46:06;9.80;99.90
29237;DHT22;16266;50.866;4.398;2024-02-21T03:48:32;9.80;99.90
29237;DHT22;16266;50.866;4.398;2024-02-21T03:50:58;9.90;99.90
29237;DHT22;16266;50.866;4.398;2024-02-21T03:53:23;9.90;99.90
29237;DHT22;16266;50.866;4.398;2024-02-21T03:55:49;9.80;99.90
29237;DHT22;16266;50.866;4.398;2024-02-21T03:58:14;9.80;99.90
29237;DHT22;16266;50.866;4.398;2024-02-21T04:00:40;9.80;99.90
29237;DHT22;16266;50.866;4.398;2024-02-21T04:03:06;9.80;99.90
29237;DHT22;16266;50.866;4.398;2024-02-21T04:05:32;9.80;99.90
29237;DHT22;16266;50.866;4.398;2024-02-21T04:07:58;9.80;99.90
29237;DHT22;16266;50.866;4.398;2024-02-21T04:10:24;9.70;99.90
29237;DHT22;16266;50.866;4.398;2024-02-21T04:12:49;9.70;99.90
29237;DHT22;16266;50.866;4.398;2024-02-21T04:15:20;9.60;99.90
29237;DHT22;16266;50.866;4.398;2024-02-21T04:17:46;9.70;99.90
29237;DHT22;16266;50.866;4.398;2024-02-21T04:20:17;9.70;99.90
29237;DHT22;16266;50.866;4.398;2024-02-21T04:22:43;9.70;99.90
29237;DHT22;16266;50.866;4.398;2024-02-21T04:25:09;9.80;99.90
29237;DHT22;16266;50.866;4.398;2024-02-21T04:27:36;9.70;99.90
29237;DHT22;16266;50.866;4.398;2024-02-21T04:30:02;9.80;99.90
29237;DHT22;16266;50.866;4.398;2024-02-21T04:32:28;9.80;99.90
29237;DHT22;16266;50.866;4.398;2024-02-21T04:34:53;9.80;99.90
29237;DHT22;16266;50.866;4.398;2024-02-21T04:37:22;9.70;99.90
29237;DHT22;16266;50.866;4.398;2024-02-21T04:39:50;9.70;99.90
29237;DHT22;16266;50.866;4.398;2024-02-21T04:42:16;9.60;99.90
29237;DHT22;16266;50.866;4.398;2024-02-21T04:44:42;9.50;99.90
29237;DHT22;16266;50.866;4.398;2024-02-21T04:47:07;9.50;99.90
29237;DHT22;16266;50.866;4.398;2024-02-21T04:49:33;9.50;99.90
29237;DHT22;16266;50.866;4.398;2024-02-21T04:51:59;9.50;99.90
29237;DHT22;16266;50.866;4.398;2024-02-21T04:54:24;9.50;99.90
29237;DHT22;16266;50.866;4.398;2024-02-21T04:56:50;9.50;99.90
29237;DHT22;16266;50.866;4.398;2024-02-21T04:59:15;9.60;99.90
29237;DHT22;16266;50.866;4.398;2024-02-21T05:01:41;9.60;99.90
29237;DHT22;16266;50.866;4.398;2024-02-21T05:04:07;9.60;99.90
29237;DHT22;16266;50.866;4.398;2024-02-21T05:06:36;9.70;99.90
29237;DHT22;16266;50.866;4.398;2024-02-21T05:09:02;9.70;99.90
29237;DHT22;16266;50.866;4.398;2024-02-21T05:11:27;9.70;99.90
29237;DHT22;16266;50.866;4.398;2024-02-21T05:13:53;9.60;99.90
29237;DHT22;16266;50.866;4.398;2024-02-21T05:16:18;9.60;99.90
29237;DHT22;16266;50.866;4.398;2024-02-21T05:18:44;9.50;99.90
29237;DHT22;16266;50.866;4.398;2024-02-21T05:21:10;9.60;99.90
29237;DHT22;16266;50.866;4.398;2024-02-21T05:23:35;9.60;99.90
29237;DHT22;16266;50.866;4.398;2024-02-21T05:26:01;9.60;99.90
29237;DHT22;16266;50.866;4.398;2024-02-21T05:28:27;9.50;99.90
29237;DHT22;16266;50.866;4.398;2024-02-21T05:30:52;9.50;99.90
29237;DHT22;16266;50.866;4.398;2024-02-21T05:33:19;9.50;99.90
29237;DHT22;16266;50.866;4.398;2024-02-21T05:35:47;9.50;99.90
29237;DHT22;16266;50.866;4.398;2024-02-21T05:38:13;9.50;99.90
29237;DHT22;16266;50.866;4.398;2024-02-21T05:40:38;9.40;99.90
29237;DHT22;16266;50.866;4.398;2024-02-21T05:43:04;9.40;99.90
29237;DHT22;16266;50.866;4.398;2024-02-21T05:45:30;9.50;99.90
29237;DHT22;16266;50.866;4.398;2024-02-21T05:47:55;9.40;99.90
29237;DHT22;16266;50.866;4.398;2024-02-21T05:50:22;9.50;99.90
29237;DHT22;16266;50.866;4.398;2024-02-21T05:52:51;9.60;99.90
29237;DHT22;16266;50.866;4.398;2024-02-21T05:55:17;9.60;99.90
29237;DHT22;16266;50.866;4.398;2024-02-21T05:57:43;9.60;99.90
29237;DHT22;16266;50.866;4.398;2024-02-21T06:00:08;9.60;99.90
29237;DHT22;16266;50.866;4.398;2024-02-21T06:02:34;9.50;99.90
29237;DHT22;16266;50.866;4.398;2024-02-21T06:05:00;9.70;99.90
29237;DHT22;16266;50.866;4.398;2024-02-21T06:07:25;9.60;99.90
29237;DHT22;16266;50.866;4.398;2024-02-21T06:09:51;9.60;99.90
29237;DHT22;16266;50.866;4.398;2024-02-21T06:12:16;9.80;99.90
29237;DHT22;16266;50.866;4.398;2024-02-21T06:14:42;9.90;99.90
29237;DHT22;16266;50.866;4.398;2024-02-21T06:17:07;9.80;99.90
29237;DHT22;16266;50.866;4.398;2024-02-21T06:19:33;9.80;99.90
29237;DHT22;16266;50.866;4.398;2024-02-21T06:21:59;9.70;99.90
29237;DHT22;16266;50.866;4.398;2024-02-21T06:24:24;9.70;99.90
29237;DHT22;16266;50.866;4.398;2024-02-21T06:26:50;9.70;99.90
29237;DHT22;16266;50.866;4.398;2024-02-21T06:29:16;9.90;99.90
29237;DHT22;16266;50.866;4.398;2024-02-21T06:31:41;9.90;99.90
29237;DHT22;16266;50.866;4.398;2024-02-21T06:34:08;10.00;99.90
29237;DHT22;16266;50.866;4.398;2024-02-21T06:36:33;9.90;99.90
29237;DHT22;16266;50.866;4.398;2024-02-21T06:38:59;10.00;99.90
29237;DHT22;16266;50.866;4.398;2024-02-21T06:41:24;10.00;99.90
29237;DHT22;16266;50.866;4.398;2024-02-21T06:43:50;9.90;99.90
29237;DHT22;16266;50.866;4.398;2024-02-21T06:46:25;10.00;99.90
29237;DHT22;16266;50.866;4.398;2024-02-21T06:48:51;9.90;99.90
29237;DHT22;16266;50.866;4.398;2024-02-21T06:51:16;9.90;99.90
29237;DHT22;16266;50.866;4.398;2024-02-21T06:53:42;9.90;99.90
29237;DHT22;16266;50.866;4.398;2024-02-21T06:56:09;9.80;99.90
29237;DHT22;16266;50.866;4.398;2024-02-21T06:58:34;9.80;99.90
29237;DHT22;16266;50.866;4.398;2024-02-21T07:01:01;9.80;99.90
29237;DHT22;16266;50.866;4.398;2024-02-21T07:03:27;9.80;99.90
29237;DHT22;16266;50.866;4.398;2024-02-21T07:05:52;9.70;99.90
29237;DHT22;16266;50.866;4.398;2024-02-21T07:08:19;9.70;99.90
29237;DHT22;16266;50.866;4.398;2024-02-21T07:10:46;9.80;99.90
29237;DHT22;16266;50.866;4.398;2024-02-21T07:13:12;9.80;99.90
29237;DHT22;16266;50.866;4.398;2024-02-21T07:15:38;9.70;99.90
29237;DHT22;16266;50.866;4.398;2024-02-21T07:18:05;9.50;99.90
29237;DHT22;16266;50.866;4.398;2024-02-21T07:20:30;9.40;99.90
29237;DHT22;16266;50.866;4.398;2024-02-21T07:22:56;9.50;99.90
29237;DHT22;16266;50.866;4.398;2024-02-21T07:25:21;9.40;99.90
29237;DHT22;16266;50.866;4.398;2024-02-21T07:27:47;9.30;99.90
29237;DHT22;16266;50.866;4.398;2024-02-21T07:30:12;9.30;99.90
29237;DHT22;16266;50.866;4.398;2024-02-21T07:32:38;9.30;99.90
29237;DHT22;16266;50.866;4.398;2024-02-21T07:35:04;9.30;99.90
29237;DHT22;16266;50.866;4.398;2024-02-21T07:37:31;9.40;99.90
29237;DHT22;16266;50.866;4.398;2024-02-21T07:39:56;9.40;99.90
29237;DHT22;16266;50.866;4.398;2024-02-21T07:42:22;9.40;99.90
29237;DHT22;16266;50.866;4.398;2024-02-21T07:44:48;9.40;99.90
29237;DHT22;16266;50.866;4.398;2024-02-21T07:47:14;9.30;99.90
29237;DHT22;16266;50.866;4.398;2024-02-21T07:49:44;9.40;99.90
29237;DHT22;16266;50.866;4.398;2024-02-21T07:52:09;9.40;99.90
29237;DHT22;16266;50.866;4.398;2024-02-21T07:54:35;9.40;99.90
29237;DHT22;16266;50.866;4.398;2024-02-21T07:57:00;9.50;99.90
29237;DHT22;16266;50.866;4.398;2024-02-21T07:59:26;9.50;99.90
29237;DHT22;16266;50.866;4.398;2024-02-21T08:01:51;9.70;99.90
29237;DHT22;16266;50.866;4.398;2024-02-21T08:04:18;9.80;99.90
29237;DHT22;16266;50.866;4.398;2024-02-21T08:06:44;9.80;99.90
29237;DHT22;16266;50.866;4.398;2024-02-21T08:09:10;9.70;99.90
29237;DHT22;16266;50.866;4.398;2024-02-21T08:11:36;9.70;99.90
29237;DHT22;16266;50.866;4.398;2024-02-21T08:14:01;9.80;99.90
29237;DHT22;16266;50.866;4.398;2024-02-21T08:16:28;9.90;99.90
29237;DHT22;16266;50.866;4.398;2024-02-21T08:18:54;10.00;99.90
29237;DHT22;16266;50.866;4.398;2024-02-21T08:21:19;10.00;99.90
29237;DHT22;16266;50.866;4.398;2024-02-21T08:23:45;9.90;99.90
29237;DHT22;16266;50.866;4.398;2024-02-21T08:26:11;9.90;99.90
29237;DHT22;16266;50.866;4.398;2024-02-21T08:28:39;9.90;99.90
29237;DHT22;16266;50.866;4.398;2024-02-21T08:31:05;9.90;99.90
29237;DHT22;16266;50.866;4.398;2024-02-21T08:33:30;10.00;99.90
29237;DHT22;16266;50.866;4.398;2024-02-21T08:35:56;10.20;99.90
29237;DHT22;16266;50.866;4.398;2024-02-21T08:38:21;10.20;99.90
29237;DHT22;16266;50.866;4.398;2024-02-21T08:40:47;10.30;99.90
29237;DHT22;16266;50.866;4.398;2024-02-21T08:43:13;10.20;99.90
29237;DHT22;16266;50.866;4.398;2024-02-21T08:45:38;10.30;99.90
29237;DHT22;16266;50.866;4.398;2024-02-21T08:48:04;10.20;99.90
29237;DHT22;16266;50.866;4.398;2024-02-21T08:50:30;10.20;99.90
29237;DHT22;16266;50.866;4.398;2024-02-21T08:52:55;10.20;99.90
29237;DHT22;16266;50.866;4.398;2024-02-21T08:55:21;10.40;99.90
29237;DHT22;16266;50.866;4.398;2024-02-21T08:57:46;10.30;99.90
29237;DHT22;16266;50.866;4.398;2024-02-21T09:00:12;10.30;99.90
29237;DHT22;16266;50.866;4.398;2024-02-21T09:02:39;10.30;99.90
29237;DHT22;16266;50.866;4.398;2024-02-21T09:05:05;10.50;99.90
29237;DHT22;16266;50.866;4.398;2024-02-21T09:07:31;10.50;99.90
29237;DHT22;16266;50.866;4.398;2024-02-21T09:09:59;10.50;99.90
29237;DHT22;16266;50.866;4.398;2024-02-21T09:12:26;10.50;99.90
29237;DHT22;16266;50.866;4.398;2024-02-21T09:14:51;10.60;99.90
29237;DHT22;16266;50.866;4.398;2024-02-21T09:17:17;10.70;99.90
29237;DHT22;16266;50.866;4.398;2024-02-21T09:19:43;10.60;99.90
29237;DHT22;16266;50.866;4.398;2024-02-21T09:22:09;10.60;99.90
29237;DHT22;16266;50.866;4.398;2024-02-21T09:24:34;10.80;99.90
29237;DHT22;16266;50.866;4.398;2024-02-21T09:27:01;10.70;99.90
29237;DHT22;16266;50.866;4.398;2024-02-21T09:29:27;10.60;99.90
29237;DHT22;16266;50.866;4.398;2024-02-21T09:31:52;10.70;99.90
29237;DHT22;16266;50.866;4.398;2024-02-21T09:34:18;10.80;99.90
29237;DHT22;16266;50.866;4.398;2024-02-21T09:36:43;10.80;99.90
29237;DHT22;16266;50.866;4.398;2024-02-21T09:39:10;11.00;99.90
29237;DHT22;16266;50.866;4.398;2024-02-21T09:41:41;11.00;99.90
29237;DHT22;16266;50.866;4.398;2024-02-21T09:44:09;11.00;99.90
29237;DHT22;16266;50.866;4.398;2024-02-21T09:46:46;11.00;99.90
29237;DHT22;16266;50.866;4.398;2024-02-21T09:51:47;11.20;99.90
29237;DHT22;16266;50.866;4.398;2024-02-21T09:54:15;11.20;99.90
29237;DHT22;16266;50.866;4.398;2024-02-21T09:56:40;11.30;99.90
29237;DHT22;16266;50.866;4.398;2024-02-21T09:59:06;11.40;99.90
29237;DHT22;16266;50.866;4.398;2024-02-21T10:01:32;11.40;99.90
29237;DHT22;16266;50.866;4.398;2024-02-21T10:03:58;11.50;99.90
29237;DHT22;16266;50.866;4.398;2024-02-21T10:06:23;11.50;99.90
29237;DHT22;16266;50.866;4.398;2024-02-21T10:08:53;11.50;99.90
29237;DHT22;16266;50.866;4.398;2024-02-21T10:11:25;11.30;99.90
29237;DHT22;16266;50.866;4.398;2024-02-21T10:13:51;11.50;99.90
29237;DHT22;16266;50.866;4.398;2024-02-21T10:16:27;11.60;99.90
29237;DHT22;16266;50.866;4.398;2024-02-21T10:18:54;11.60;99.90
29237;DHT22;16266;50.866;4.398;2024-02-21T10:21:19;11.80;99.90
29237;DHT22;16266;50.866;4.398;2024-02-21T10:23:48;12.10;99.90
29237;DHT22;16266;50.866;4.398;2024-02-21T10:26:14;12.20;99.90
29237;DHT22;16266;50.866;4.398;2024-02-21T10:28:40;11.90;99.90
29237;DHT22;16266;50.866;4.398;2024-02-21T10:31:31;12.10;99.90
29237;DHT22;16266;50.866;4.398;2024-02-21T10:33:56;12.30;99.90
29237;DHT22;16266;50.866;4.398;2024-02-21T10:36:22;12.40;99.90
29237;DHT22;16266;50.866;4.398;2024-02-21T10:38:48;12.60;99.90
29237;DHT22;16266;50.866;4.398;2024-02-21T10:41:14;12.50;99.90
29237;DHT22;16266;50.866;4.398;2024-02-21T10:43:41;12.60;99.90
29237;DHT22;16266;50.866;4.398;2024-02-21T10:46:07;12.40;99.90
29237;DHT22;16266;50.866;4.398;2024-02-21T10:48:43;12.40;99.90
29237;DHT22;16266;50.866;4.398;2024-02-21T10:51:19;12.50;99.90
29237;DHT22;16266;50.866;4.398;2024-02-21T10:56:30;12.70;99.90
29237;DHT22;16266;50.866;4.398;2024-02-21T10:59:00;12.60;99.90
29237;DHT22;16266;50.866;4.398;2024-02-21T11:01:26;12.80;99.90
29237;DHT22;16266;50.866;4.398;2024-02-21T11:03:55;13.10;99.90
29237;DHT22;16266;50.866;4.398;2024-02-21T11:06:21;13.00;99.90
29237;DHT22;16266;50.866;4.398;2024-02-21T11:08:47;12.90;99.90
29237;DHT22;16266;50.866;4.398;2024-02-21T11:11:14;12.90;99.90
29237;DHT22;16266;50.866;4.398;2024-02-21T11:13:42;13.00;99.90
29237;DHT22;16266;50.866;4.398;2024-02-21T11:16:09;12.80;99.90
29237;DHT22;16266;50.866;4.398;2024-02-21T11:18:35;12.30;99.90
29237;DHT22;16266;50.866;4.398;2024-02-21T11:21:01;12.40;99.90
29237;DHT22;16266;50.866;4.398;2024-02-21T11:23:26;12.60;99.90
29237;DHT22;16266;50.866;4.398;2024-02-21T11:25:52;12.40;99.90
29237;DHT22;16266;50.866;4.398;2024-02-21T11:28:25;12.30;99.90
29237;DHT22;16266;50.866;4.398;2024-02-21T11:30:50;12.50;99.90
29237;DHT22;16266;50.866;4.398;2024-02-21T11:33:16;12.60;99.90
29237;DHT22;16266;50.866;4.398;2024-02-21T11:35:43;12.30;99.90
29237;DHT22;16266;50.866;4.398;2024-02-21T11:38:12;12.20;99.90
29237;DHT22;16266;50.866;4.398;2024-02-21T11:40:43;12.00;99.90
29237;DHT22;16266;50.866;4.398;2024-02-21T11:43:10;12.10;99.90
29237;DHT22;16266;50.866;4.398;2024-02-21T11:45:36;12.50;99.90
29237;DHT22;16266;50.866;4.398;2024-02-21T11:48:02;12.40;99.90
29237;DHT22;16266;50.866;4.398;2024-02-21T11:50:29;12.50;99.90
29237;DHT22;16266;50.866;4.398;2024-02-21T11:52:55;12.40;99.90
29237;DHT22;16266;50.866;4.398;2024-02-21T11:55:21;12.30;99.90
29237;DHT22;16266;50.866;4.398;2024-02-21T11:57:47;12.20;99.90
29237;DHT22;16266;50.866;4.398;2024-02-21T12:00:14;12.00;99.90
29237;DHT22;16266;50.866;4.398;2024-02-21T12:02:40;12.10;99.90
29237;DHT22;16266;50.866;4.398;2024-02-21T12:05:06;12.10;99.90
29237;DHT22;16266;50.866;4.398;2024-02-21T12:07:32;11.90;99.90
29237;DHT22;16266;50.866;4.398;2024-02-21T12:10:00;11.90;99.90
29237;DHT22;16266;50.866;4.398;2024-02-21T12:12:25;11.80;99.90
29237;DHT22;16266;50.866;4.398;2024-02-21T12:14:55;11.80;99.90
29237;DHT22;16266;50.866;4.398;2024-02-21T12:17:23;12.00;99.90
29237;DHT22;16266;50.866;4.398;2024-02-21T12:19:50;11.90;99.90
29237;DHT22;16266;50.866;4.398;2024-02-21T12:22:18;11.80;99.90
29237;DHT22;16266;50.866;4.398;2024-02-21T12:24:44;11.80;99.90
29237;DHT22;16266;50.866;4.398;2024-02-21T12:27:13;11.80;99.90
29237;DHT22;16266;50.866;4.398;2024-02-21T12:29:38;11.80;99.90
29237;DHT22;16266;50.866;4.398;2024-02-21T12:32:04;11.70;99.90
29237;DHT22;16266;50.866;4.398;2024-02-21T12:34:29;11.60;99.90
29237;DHT22;16266;50.866;4.398;2024-02-21T12:36:58;11.60;99.90
29237;DHT22;16266;50.866;4.398;2024-02-21T12:39:23;11.70;99.90
29237;DHT22;16266;50.866;4.398;2024-02-21T12:41:50;11.90;99.90
29237;DHT22;16266;50.866;4.398;2024-02-21T12:44:16;11.70;99.90
29237;DHT22;16266;50.866;4.398;2024-02-21T12:46:42;12.00;99.90
29237;DHT22;16266;50.866;4.398;2024-02-21T12:49:08;12.10;99.90
29237;DHT22;16266;50.866;4.398;2024-02-21T12:51:34;12.40;99.90
29237;DHT22;16266;50.866;4.398;2024-02-21T12:53:59;12.50;99.90
29237;DHT22;16266;50.866;4.398;2024-02-21T12:56:25;12.40;99.90
29237;DHT22;16266;50.866;4.398;2024-02-21T12:58:56;12.40;99.90
29237;DHT22;16266;50.866;4.398;2024-02-21T13:01:22;12.40;99.90
29237;DHT22;16266;50.866;4.398;2024-02-21T13:03:47;12.50;99.90
29237;DHT22;16266;50.866;4.398;2024-02-21T13:06:13;12.30;99.90
29237;DHT22;16266;50.866;4.398;2024-02-21T13:08:38;12.00;99.90
29237;DHT22;16266;50.866;4.398;2024-02-21T13:11:05;12.10;99.90
29237;DHT22;16266;50.866;4.398;2024-02-21T13:13:31;12.10;99.90
29237;DHT22;16266;50.866;4.398;2024-02-21T13:15:57;12.10;99.90
29237;DHT22;16266;50.866;4.398;2024-02-21T13:18:22;12.00;99.90
29237;DHT22;16266;50.866;4.398;2024-02-21T13:20:48;12.30;99.90
29237;DHT22;16266;50.866;4.398;2024-02-21T13:23:13;12.20;99.90
29237;DHT22;16266;50.866;4.398;2024-02-21T13:25:39;12.30;99.90
29237;DHT22;16266;50.866;4.398;2024-02-21T13:28:04;12.20;99.90
29237;DHT22;16266;50.866;4.398;2024-02-21T13:30:30;12.00;99.90
29237;DHT22;16266;50.866;4.398;2024-02-21T13:32:56;12.00;99.90
29237;DHT22;16266;50.866;4.398;2024-02-21T13:35:21;11.80;99.90
29237;DHT22;16266;50.866;4.398;2024-02-21T13:37:47;12.00;99.90
29237;DHT22;16266;50.866;4.398;2024-02-21T13:40:12;12.00;99.90
29237;DHT22;16266;50.866;4.398;2024-02-21T13:42:39;11.80;99.90
29237;DHT22;16266;50.866;4.398;2024-02-21T13:45:05;11.60;99.90
29237;DHT22;16266;50.866;4.398;2024-02-21T13:47:31;11.40;99.90
29237;DHT22;16266;50.866;4.398;2024-02-21T13:49:57;11.30;99.90
29237;DHT22;16266;50.866;4.398;2024-02-21T13:52:23;11.10;99.90
29237;DHT22;16266;50.866;4.398;2024-02-21T13:54:54;10.80;99.90
29237;DHT22;16266;50.866;4.398;2024-02-21T13:57:19;10.80;99.90
29237;DHT22;16266;50.866;4.398;2024-02-21T13:59:45;10.60;99.90
29237;DHT22;16266;50.866;4.398;2024-02-21T14:02:10;10.50;99.90
29237;DHT22;16266;50.866;4.398;2024-02-21T14:04:36;10.50;99.90
29237;DHT22;16266;50.866;4.398;2024-02-21T14:07:01;10.30;99.90
29237;DHT22;16266;50.866;4.398;2024-02-21T14:09:27;10.30;99.90
29237;DHT22;16266;50.866;4.398;2024-02-21T14:11:55;10.20;99.90
29237;DHT22;16266;50.866;4.398;2024-02-21T14:14:20;10.20;99.90
29237;DHT22;16266;50.866;4.398;2024-02-21T14:16:46;10.20;99.90
29237;DHT22;16266;50.866;4.398;2024-02-21T14:19:13;10.30;99.90
29237;DHT22;16266;50.866;4.398;2024-02-21T14:21:39;10.20;99.90
29237;DHT22;16266;50.866;4.398;2024-02-21T14:24:05;10.10;99.90
29237;DHT22;16266;50.866;4.398;2024-02-21T14:26:30;10.10;99.90
29237;DHT22;16266;50.866;4.398;2024-02-21T14:28:56;10.00;99.90
29237;DHT22;16266;50.866;4.398;2024-02-21T14:31:22;10.00;99.90
29237;DHT22;16266;50.866;4.398;2024-02-21T14:33:48;9.90;99.90
29237;DHT22;16266;50.866;4.398;2024-02-21T14:36:13;9.80;99.90
29237;DHT22;16266;50.866;4.398;2024-02-21T14:38:41;9.80;99.90
29237;DHT22;16266;50.866;4.398;2024-02-21T14:41:07;9.80;99.90
29237;DHT22;16266;50.866;4.398;2024-02-21T14:43:32;9.80;99.90
29237;DHT22;16266;50.866;4.398;2024-02-21T14:46:00;9.80;99.90
29237;DHT22;16266;50.866;4.398;2024-02-21T14:48:25;9.70;99.90
29237;DHT22;16266;50.866;4.398;2024-02-21T14:50:51;9.70;99.90
29237;DHT22;16266;50.866;4.398;2024-02-21T14:53:16;9.70;99.90
29237;DHT22;16266;50.866;4.398;2024-02-21T14:55:43;9.60;99.90
29237;DHT22;16266;50.866;4.398;2024-02-21T14:58:09;9.60;99.90
29237;DHT22;16266;50.866;4.398;2024-02-21T15:00:34;9.60;99.90
29237;DHT22;16266;50.866;4.398;2024-02-21T15:03:00;9.60;99.90
29237;DHT22;16266;50.866;4.398;2024-02-21T15:05:26;9.60;99.90
29237;DHT22;16266;50.866;4.398;2024-02-21T15:07:52;9.60;99.90
29237;DHT22;16266;50.866;4.398;2024-02-21T15:10:17;9.60;99.90
29237;DHT22;16266;50.866;4.398;2024-02-21T15:12:46;9.60;99.90
29237;DHT22;16266;50.866;4.398;2024-02-21T15:15:11;9.60;99.90
29237;DHT22;16266;50.866;4.398;2024-02-21T15:17:37;9.60;99.90
29237;DHT22;16266;50.866;4.398;2024-02-21T15:20:03;9.60;99.90
29237;DHT22;16266;50.866;4.398;2024-02-21T15:22:30;9.50;99.90
29237;DHT22;16266;50.866;4.398;2024-02-21T15:24:55;9.60;99.90
29237;DHT22;16266;50.866;4.398;2024-02-21T15:27:21;9.50;99.90
29237;DHT22;16266;50.866;4.398;2024-02-21T15:29:48;9.50;99.90
29237;DHT22;16266;50.866;4.398;2024-02-21T15:32:13;9.40;99.90
29237;DHT22;16266;50.866;4.398;2024-02-21T15:34:38;9.40;99.90
29237;DHT22;16266;50.866;4.398;2024-02-21T15:37:04;9.40;99.90
29237;DHT22;16266;50.866;4.398;2024-02-21T15:39:30;9.40;99.90